createdAt,value
2023-03-08T00:00:27.668Z,5.28
2023-03-08T00:04:29.963Z,4.05
2023-03-08T00:08:32.288Z,4.55
2023-03-08T00:12:34.534Z,4.70
2023-03-08T00:16:37.020Z,4.75
2023-03-08T00:20:39.331Z,4.00
2023-03-08T00:24:41.929Z,4.50
2023-03-08T00:28:46.667Z,4.43
2023-03-08T00:32:49.159Z,4.80
2023-03-08T00:36:51.450Z,3.67
2023-03-08T00:40:54.052Z,4.57
2023-03-08T00:44:56.335Z,3.85
2023-03-08T00:49:00.170Z,4.10
2023-03-08T00:53:03.413Z,4.30
2023-03-08T00:57:08.515Z,4.53
2023-03-08T01:01:15.565Z,4.25
2023-03-08T01:05:18.855Z,5.60
2023-03-08T01:09:21.866Z,6.15
2023-03-08T01:22:38.339Z,5.05
2023-03-08T01:26:40.848Z,5.13
2023-03-08T01:30:43.073Z,5.50
2023-03-08T01:34:47.397Z,5.85
2023-03-08T01:38:50.325Z,5.53
2023-03-08T01:42:52.748Z,6.00
2023-03-08T01:46:55.251Z,6.15
2023-03-08T01:51:08.160Z,6.72
2023-03-08T01:55:13.846Z,6.25
2023-03-08T01:59:21.274Z,5.47
2023-03-08T02:03:28.098Z,5.25
2023-03-08T02:07:35.634Z,6.43
2023-03-08T02:11:44.030Z,5.80
2023-03-08T02:15:57.020Z,5.22
2023-03-08T02:20:07.563Z,5.63
2023-03-08T02:24:25.615Z,5.88
2023-03-08T02:28:30.159Z,5.60
2023-03-08T02:32:35.888Z,6.13
2023-03-08T02:51:10.011Z,4.90
2023-03-08T02:55:12.948Z,6.38
2023-03-08T02:59:16.036Z,6.25
2023-03-08T03:03:20.019Z,6.78
2023-03-08T03:07:26.576Z,5.80
2023-03-08T03:11:31.549Z,6.35
2023-03-08T03:15:39.535Z,6.53
2023-03-08T03:19:42.461Z,6.20
2023-03-08T03:23:44.825Z,6.40
2023-03-08T03:27:51.101Z,7.13
2023-03-08T03:31:54.812Z,7.10
2023-03-08T03:35:57.779Z,7.43
2023-03-08T03:40:01.084Z,7.40
2023-03-08T03:44:05.435Z,6.95
2023-03-08T03:48:09.196Z,7.90
2023-03-08T03:52:11.850Z,7.30
2023-03-08T03:56:22.673Z,7.30
2023-03-08T04:00:26.261Z,6.85
2023-03-08T04:04:40.759Z,7.15
2023-03-08T04:08:45.336Z,6.75
2023-03-08T04:12:53.771Z,7.43
2023-03-08T04:16:58.211Z,6.80
2023-03-08T04:21:13.442Z,7.07
2023-03-08T04:25:16.570Z,7.00
2023-03-08T04:29:25.330Z,7.13
2023-03-08T04:33:27.990Z,7.85
2023-03-08T04:37:30.817Z,7.35
2023-03-08T04:41:40.151Z,8.00
2023-03-08T04:45:56.002Z,7.65
2023-03-08T04:49:58.746Z,7.53
2023-03-08T04:54:01.169Z,8.07
2023-03-08T04:58:04.415Z,7.95
2023-03-08T05:02:08.690Z,8.15
2023-03-08T05:06:18.650Z,7.53
2023-03-08T05:10:22.604Z,7.28
2023-03-08T05:14:27.324Z,7.50
2023-03-08T05:18:30.113Z,7.95
2023-03-08T05:22:32.514Z,7.65
2023-03-08T05:26:34.900Z,7.28
2023-03-08T06:04:35.992Z,6.40
2023-03-08T06:08:39.733Z,9.68
2023-03-08T06:12:46.633Z,9.02
2023-03-08T06:16:52.745Z,8.13
2023-03-08T06:21:08.664Z,7.75
2023-03-08T06:25:13.188Z,7.00
2023-03-08T06:29:15.761Z,6.78
2023-03-08T06:33:20.571Z,7.63
2023-03-08T06:37:24.528Z,7.28
2023-03-08T06:41:30.062Z,7.82
2023-03-08T06:45:38.964Z,7.63
2023-03-08T06:49:41.837Z,7.85
2023-03-08T06:53:45.717Z,8.10
2023-03-08T06:57:50.514Z,8.38
2023-03-08T07:01:52.869Z,7.40
2023-03-08T07:06:09.182Z,7.85
2023-03-08T07:10:15.038Z,8.43
2023-03-08T07:14:17.354Z,6.82
2023-03-08T07:18:20.510Z,8.27
2023-03-08T07:22:22.611Z,9.13
2023-03-08T07:26:33.280Z,8.82
2023-03-08T07:30:47.544Z,7.90
2023-03-08T07:34:49.628Z,7.97
2023-03-08T07:38:52.142Z,9.05
2023-03-08T07:42:55.832Z,8.30
2023-03-08T07:51:12.839Z,7.03
2023-03-08T07:55:16.895Z,6.20
2023-03-08T07:59:19.784Z,6.13
2023-03-08T08:03:23.081Z,6.00
2023-03-08T08:07:25.291Z,5.63
2023-03-08T08:11:28.496Z,5.05
2023-03-08T08:15:32.270Z,5.50
2023-03-08T08:19:36.838Z,6.93
2023-03-08T08:23:42.526Z,5.65
2023-03-08T08:27:47.337Z,6.50
2023-03-08T08:32:00.880Z,5.25
2023-03-08T08:36:13.497Z,5.25
2023-03-08T08:40:25.870Z,7.40
2023-03-08T08:49:01.314Z,7.78
2023-03-08T08:53:08.517Z,5.57
2023-03-08T08:57:12.136Z,7.05
2023-03-08T09:01:20.510Z,6.60
2023-03-08T09:05:27.188Z,6.75
2023-03-08T09:09:30.777Z,5.83
2023-03-08T09:13:44.321Z,6.53
2023-03-08T09:17:52.014Z,6.63
2023-03-08T09:36:10.614Z,5.65
2023-03-08T09:40:26.199Z,4.63
2023-03-08T09:44:52.558Z,4.20
2023-03-08T09:49:01.499Z,4.72
2023-03-08T09:53:10.042Z,4.80
2023-03-08T09:57:23.357Z,4.53
2023-03-08T10:01:51.218Z,4.63
2023-03-08T10:06:23.482Z,2.80
2023-03-08T10:10:40.229Z,2.28
2023-03-08T10:14:51.437Z,2.70
2023-03-08T10:19:18.987Z,2.13
2023-03-08T10:23:28.089Z,1.92
2023-03-08T10:28:18.281Z,1.83
2023-03-08T10:32:30.252Z,1.77
2023-03-08T10:37:15.692Z,1.67
2023-03-08T10:41:19.856Z,2.13
2023-03-08T10:45:22.527Z,1.52
2023-03-08T10:49:27.881Z,1.55
2023-03-08T10:53:34.564Z,2.15
2023-03-08T10:57:50.410Z,1.70
2023-03-08T11:02:27.988Z,1.73
2023-03-08T11:11:19.253Z,2.03
2023-03-08T11:16:15.327Z,2.20
2023-03-08T11:20:44.142Z,2.28
2023-03-08T11:29:36.832Z,2.78
2023-03-08T11:34:37.948Z,1.27
2023-03-08T11:38:48.788Z,1.90
2023-03-08T11:42:57.055Z,1.50
2023-03-08T11:47:22.428Z,1.88
2023-03-08T11:51:37.073Z,2.30
2023-03-08T11:56:04.498Z,1.88
2023-03-08T12:00:28.826Z,1.50
2023-03-08T12:04:40.772Z,1.45
2023-03-08T12:08:51.115Z,1.67
2023-03-08T12:13:05.700Z,1.65
2023-03-08T12:17:20.751Z,1.77
2023-03-08T12:21:46.926Z,1.35
2023-03-08T12:25:56.762Z,1.92
2023-03-08T12:30:14.737Z,2.65
2023-03-08T12:34:39.488Z,2.55
2023-03-08T12:42:50.772Z,2.20
2023-03-08T12:47:03.513Z,2.80
2023-03-08T12:51:15.009Z,1.80
2023-03-08T12:55:32.856Z,2.20
2023-03-08T12:59:38.868Z,2.00
2023-03-08T13:03:43.408Z,1.98
2023-03-08T13:08:17.466Z,2.35
2023-03-08T13:12:29.141Z,2.30
2023-03-08T13:16:41.636Z,2.15
2023-03-08T13:25:29.968Z,1.40
2023-03-08T13:29:35.383Z,1.45
2023-03-08T13:33:46.893Z,2.13
2023-03-08T13:38:00.357Z,1.58
2023-03-08T13:42:13.241Z,2.40
2023-03-08T13:46:27.351Z,1.80
2023-03-08T13:50:34.239Z,1.92
2023-03-08T13:54:51.225Z,1.83
2023-03-08T13:59:21.344Z,1.77
2023-03-08T14:10:04.170Z,1.55
2023-03-08T14:14:20.315Z,1.40
2023-03-08T14:18:43.770Z,1.30
2023-03-08T14:22:53.434Z,1.88
2023-03-08T14:27:00.655Z,1.10
2023-03-08T14:31:02.985Z,0.90
2023-03-08T14:35:20.666Z,1.00
2023-03-08T14:39:25.199Z,1.00
2023-03-08T14:43:27.820Z,0.88
2023-03-08T14:47:32.766Z,1.08
2023-03-08T14:51:42.825Z,1.15
2023-03-08T14:55:45.019Z,1.17
2023-03-08T14:59:47.410Z,1.13
2023-03-08T15:03:50.241Z,1.20
2023-03-08T15:07:55.057Z,1.00
2023-03-08T15:12:00.278Z,1.30
2023-03-08T15:16:02.881Z,1.73
2023-03-08T15:20:06.606Z,1.42
2023-03-08T15:24:19.459Z,1.80
2023-03-08T15:28:30.957Z,1.33
2023-03-08T15:32:37.022Z,1.13
2023-03-08T15:36:39.310Z,1.60
2023-03-08T15:40:42.450Z,12.57
2023-03-08T15:44:44.748Z,17.00
2023-03-08T15:48:47.460Z,17.50
2023-03-08T15:52:49.782Z,2.45
2023-03-08T15:56:51.834Z,3.35
2023-03-08T16:00:53.916Z,1.67
2023-03-08T16:04:58.074Z,1.88
2023-03-08T16:09:00.240Z,1.50
2023-03-08T16:13:02.355Z,1.70
2023-03-08T16:17:05.209Z,1.95
2023-03-08T16:21:09.287Z,2.15
2023-03-08T16:25:11.459Z,1.30
2023-03-08T16:29:13.713Z,1.60
2023-03-08T16:33:18.288Z,2.13
2023-03-08T16:37:21.667Z,2.28
2023-03-08T16:41:26.290Z,1.52
2023-03-08T16:45:28.524Z,1.50
2023-03-08T16:49:30.696Z,1.80
2023-03-08T16:53:32.926Z,2.45
2023-03-08T16:57:37.464Z,1.40
2023-03-08T17:01:42.597Z,1.75
2023-03-08T17:05:49.964Z,1.70
2023-03-08T17:09:52.187Z,2.38
2023-03-08T17:14:00.788Z,1.60
2023-03-08T17:18:02.967Z,2.58
2023-03-08T17:22:05.259Z,1.52
2023-03-08T17:26:09.467Z,3.20
2023-03-08T17:30:14.321Z,3.17
2023-03-08T17:34:16.919Z,2.78
2023-03-08T17:38:19.018Z,2.92
2023-03-08T17:42:21.053Z,1.70
2023-03-08T17:46:26.297Z,1.75
2023-03-08T17:50:31.862Z,1.67
2023-03-08T17:54:34.054Z,2.05
2023-03-08T17:58:36.988Z,2.17
2023-03-08T18:02:39.236Z,2.10
2023-03-08T18:06:43.193Z,1.70
2023-03-08T18:10:45.446Z,2.17
2023-03-08T18:14:52.576Z,2.85
2023-03-08T18:18:54.755Z,2.72
2023-03-08T18:22:56.851Z,2.97
2023-03-08T18:26:59.117Z,2.00
2023-03-08T18:31:06.411Z,2.33
2023-03-08T18:35:09.164Z,2.25
2023-03-08T18:39:13.789Z,4.60
2023-03-08T18:43:17.775Z,14.38
2023-03-08T18:47:20.311Z,13.25
2023-03-08T18:51:23.717Z,14.82
2023-03-08T18:55:26.241Z,12.77
2023-03-08T18:59:29.179Z,8.50
2023-03-08T19:03:40.942Z,3.75
2023-03-08T19:07:51.036Z,3.10
2023-03-08T19:11:55.581Z,3.92
2023-03-08T19:15:57.886Z,7.00
2023-03-08T19:20:00.545Z,7.75
2023-03-08T19:24:05.615Z,6.70
2023-03-08T19:28:08.395Z,7.75
2023-03-08T19:32:14.078Z,5.03
2023-03-08T19:36:17.538Z,4.60
2023-03-08T19:40:20.482Z,3.63
2023-03-08T19:44:25.916Z,3.75
2023-03-08T19:48:30.319Z,8.65
2023-03-08T19:52:37.052Z,6.78
2023-03-08T19:56:40.313Z,5.30
2023-03-08T20:04:47.274Z,4.85
2023-03-08T20:08:50.108Z,5.22
2023-03-08T20:12:53.003Z,8.23
2023-03-08T20:16:56.712Z,5.63
2023-03-08T20:21:02.210Z,5.63
2023-03-08T20:25:05.023Z,4.68
2023-03-08T20:29:09.769Z,5.15
2023-03-08T20:33:13.589Z,4.20
2023-03-08T20:37:16.150Z,4.90
2023-03-08T20:41:21.292Z,3.75
2023-03-08T20:45:29.183Z,3.38
2023-03-08T20:49:43.850Z,2.88
2023-03-08T20:53:54.239Z,3.05
2023-03-08T20:57:56.466Z,2.83
2023-03-08T21:01:58.935Z,2.70
2023-03-08T21:06:01.088Z,3.03
2023-03-08T21:10:03.267Z,4.00
2023-03-08T21:14:05.521Z,6.22
2023-03-08T21:18:07.740Z,5.57
2023-03-08T21:22:10.764Z,4.40
2023-03-08T21:26:14.205Z,5.53
2023-03-08T21:30:16.694Z,6.38
2023-03-08T21:34:20.023Z,5.78
2023-03-08T21:38:24.731Z,4.03
2023-03-08T21:42:27.251Z,4.38
2023-03-08T21:46:29.442Z,21.27
2023-03-08T21:50:31.677Z,9.05
2023-03-08T21:54:34.233Z,10.10
2023-03-08T21:58:39.612Z,9.43
2023-03-08T22:02:46.039Z,6.32
2023-03-08T22:06:48.457Z,5.20
2023-03-08T22:10:51.666Z,5.20
2023-03-08T22:15:02.437Z,5.50
2023-03-08T22:19:06.276Z,6.32
2023-03-08T22:23:08.447Z,4.55
2023-03-08T22:27:13.122Z,3.53
2023-03-08T22:31:18.849Z,4.05
2023-03-08T22:35:22.387Z,3.58
2023-03-08T22:39:24.618Z,3.50
2023-03-08T22:43:27.632Z,3.22
2023-03-08T22:47:30.366Z,3.33
2023-03-08T22:51:34.594Z,4.05
2023-03-08T22:55:47.258Z,5.00
2023-03-08T23:00:15.529Z,3.72
2023-03-08T23:04:18.320Z,4.43
2023-03-08T23:08:21.518Z,4.72
2023-03-08T23:12:24.818Z,5.28
2023-03-08T23:16:27.005Z,5.07
2023-03-08T23:20:29.718Z,5.07
2023-03-08T23:24:31.913Z,5.30
2023-03-08T23:28:35.757Z,5.85
2023-03-08T23:32:38.225Z,6.90
2023-03-08T23:36:40.422Z,6.43
2023-03-08T23:41:00.053Z,8.55
2023-03-08T23:45:02.232Z,6.82
2023-03-08T23:49:04.482Z,7.07
2023-03-08T23:53:07.173Z,6.82
2023-03-08T23:57:09.569Z,6.63
